Marco Polo — C6JZ7 — position and weather

sailwx.info

Track history (hours):
 
Tides and Currents Weather Stations Pressure Air Temp Water Temp Dewpoint Dewpoint Depression Visibility Wind Speed Wind Dir Waves Ship Positions

Marco Polo

Operator: Orient Lines

Last reported at 2019-Aug-21 20:39 UTC. Time now 2019-Aug-22 08:57 UTC.
Position N 61°51' W 006°29'.

Type: Ship. MMSI: 308691456.

Date/timePositionNaut miles runAvg speedWind from/ knotsBaromVisibWave heightAir tempDewpointWater temp
2019-Aug-21 20:39N 61°51' W 006°29'213.4
2019-Aug-21 20:30N 61°52' W 006°32'713.5
2019-Aug-21 20:00N 61°57' W 006°41'2 0.2
2019-Aug-21 06:59N 61°59' W 006°43'4 7.9
2019-Aug-21 06:31N 61°56' W 006°39'713.3
2019-Aug-21 06:00N 61°51' W 006°28'207 6.8
2019-Aug-19 23:31N 59°03' W 002°24'012.5
2019-Aug-19 23:30N 59°03' W 002°24'612.6
2019-Aug-19 23:00N 58°60' W 002°35'713.9
2019-Aug-19 22:30N 59°00' W 002°48'510.7
2019-Aug-19 22:00N 59°00' W 002°59'0 0.2
2019-Aug-19 21:29N 59°00' W 002°59'0 0.0
2019-Aug-19 20:59N 59°00' W 002°59'0 0.0
2019-Aug-19 20:29N 59°00' W 002°59'0 0.0
2019-Aug-19 19:59N 59°00' W 002°59'0 0.0
2019-Aug-19 19:26N 59°00' W 002°59'0 0.0
2019-Aug-19 18:59N 59°00' W 002°59'0 0.0
2019-Aug-19 18:29N 59°00' W 002°59'0 0.0
2019-Aug-19 17:59N 59°00' W 002°59'0 0.0
2019-Aug-19 17:29N 59°00' W 002°59'0 0.0
2019-Aug-19 16:59N 59°00' W 002°59'0 0.0
2019-Aug-19 16:29N 59°00' W 002°59'0 0.0
2019-Aug-19 15:59N 59°00' W 002°59'0 0.0
2019-Aug-19 15:29N 59°00' W 002°59'0 0.0
2019-Aug-19 14:59N 59°00' W 002°59'0 0.0
2019-Aug-19 14:29N 59°00' W 002°59'0 0.0
2019-Aug-19 13:59N 59°00' W 002°59'0 0.0
2019-Aug-19 13:29N 59°00' W 002°59'0 0.0
2019-Aug-19 12:59N 59°00' W 002°59'0 0.0
2019-Aug-19 12:29N 59°00' W 002°59'0 0.0
2019-Aug-19 11:59N 59°00' W 002°59'0 0.0
2019-Aug-19 11:29N 59°00' W 002°59'0 0.0
2019-Aug-19 10:59N 59°00' W 002°59'0 0.0
2019-Aug-19 10:29N 59°00' W 002°59'0 0.0
2019-Aug-19 09:59N 59°00' W 002°59'0 0.0
2019-Aug-19 09:29N 59°00' W 002°59'0 0.0
2019-Aug-19 08:59N 59°00' W 002°59'0 0.0
2019-Aug-19 08:29N 59°00' W 002°59'0 0.0
2019-Aug-19 07:59N 59°00' W 002°59'0 0.0
2019-Aug-19 07:29N 59°00' W 002°59'0 0.0
2019-Aug-19 07:00N 59°00' W 002°59'0 0.7
2019-Aug-19 06:29N 59°00' W 002°58'3 6.6
2019-Aug-19 06:00N 59°01' W 002°52'510.0
2019-Aug-19 05:30N 59°00' W 002°42'611.5
2019-Aug-19 04:58N 58°56' W 002°33'613.8
2019-Aug-19 04:30N 58°50' W 002°29'1414.9
2019-Aug-19 03:35N 58°37' W 002°20'315.9
2019-Aug-19 03:25N 58°35' W 002°18'5414.8
2019-Aug-18 23:45N 57°44' W 001°43'414.6
2019-Aug-18 23:30N 57°41' W 001°40'714.9
2019-Aug-18 23:00N 57°33' W 001°39'815.5
2019-Aug-18 22:30N 57°26' W 001°40'815.8
2019-Aug-18 22:00N 57°18' W 001°44'816.4
2019-Aug-18 21:30N 57°10' W 001°49'816.6
2019-Aug-18 21:00N 57°03' W 001°55'3616.7
2019-Aug-18 18:50N 56°29' W 002°18'516.0
2019-Aug-18 18:30N 56°24' W 002°22'815.5
2019-Aug-18 18:00N 56°16' W 002°27'816.0
2019-Aug-18 17:30N 56°12' W 002°38'816.5
2019-Aug-18 17:00N 56°07' W 002°51'816.0
2019-Aug-18 16:30N 56°03' W 003°03'612.0
2019-Aug-18 16:00N 56°02' W 003°14'612.0
2019-Aug-18 15:29N 56°00' W 003°24'2 2.5
2019-Aug-18 14:50N 56°01' W 003°26'0 0.0
2019-Aug-18 12:50N 56°01' W 003°26'4 0.7
2019-Aug-18 07:00N 56°01' W 003°19'5 9.7
2019-Aug-18 06:30N 56°03' W 003°11'612.0
2019-Aug-18 06:01N 56°04' W 003°00'510.1
2019-Aug-18 05:31N 56°07' W 002°52'611.9
2019-Aug-18 05:00N 56°10' W 002°44'612.4
2019-Aug-18 04:31N 56°13' W 002°34'612.7
2019-Aug-18 04:00N 56°18' W 002°26'814.3
2019-Aug-18 03:28N 56°25' W 002°21'3416.5
2019-Aug-18 01:26N 56°56' W 001°59'716.5
2019-Aug-18 01:01N 57°03' W 001°54'816.5
2019-Aug-18 00:30N 57°11' W 001°49'816.5
2019-Aug-18 00:00N 57°18' W 001°43'816.4
2019-Aug-17 23:30N 57°26' W 001°38'816.1
2019-Aug-17 23:01N 57°34' W 001°37'8915.5
2019-Aug-17 17:15N 58°58' W 002°35'414.3
2019-Aug-17 17:00N 58°60' W 002°41'713.4
2019-Aug-17 16:30N 59°01' W 002°54'3 5.2
2019-Aug-17 16:00N 59°00' W 002°58'0 0.0
2019-Aug-17 15:29N 59°00' W 002°58'0 0.0
2019-Aug-17 14:59N 59°00' W 002°58'0 0.0
2019-Aug-17 14:29N 59°00' W 002°58'0 0.0
2019-Aug-17 13:59N 59°00' W 002°58'0 0.0
2019-Aug-17 13:29N 59°00' W 002°58'0 0.0
2019-Aug-17 12:59N 59°00' W 002°58'0 0.0
2019-Aug-17 12:29N 59°00' W 002°58'0 0.0
2019-Aug-17 11:59N 59°00' W 002°58'0 0.0
2019-Aug-17 11:29N 59°00' W 002°58'0 0.0
2019-Aug-17 10:59N 59°00' W 002°58'0 0.0
2019-Aug-17 10:29N 59°00' W 002°58'0 0.0
2019-Aug-17 09:59N 59°00' W 002°58'0 0.0
2019-Aug-17 09:29N 59°00' W 002°58'0 0.0
2019-Aug-17 08:59N 59°00' W 002°58'0 0.0
2019-Aug-17 08:29N 59°00' W 002°58'0 0.0
2019-Aug-17 07:59N 59°00' W 002°58'0 0.0
2019-Aug-17 07:29N 59°00' W 002°58'0 0.0
2019-Aug-17 07:00N 59°00' W 002°58'0 0.8
2019-Aug-17 06:30N 59°00' W 002°58'3 6.5
2019-Aug-17 06:00N 59°01' W 002°51'510.7
2019-Aug-17 05:30N 59°00' W 002°41'510.6
2019-Aug-17 05:00N 59°01' W 002°31'89 2.9
2019-Aug-15 22:03N 57°38' W 001°29'115.8
2019-Aug-15 22:01N 57°37' W 001°30'816.0
2019-Aug-15 21:31N 57°30' W 001°36'816.3
2019-Aug-15 21:00N 57°22' W 001°42'816.7
2019-Aug-15 20:30N 57°15' W 001°48'816.9
2019-Aug-15 20:01N 57°07' W 001°53'917.3
2019-Aug-15 19:31N 56°58' W 001°58'3317.3
2019-Aug-15 17:36N 56°28' W 002°19'216.5
2019-Aug-15 17:30N 56°26' W 002°20'816.3
2019-Aug-15 17:00N 56°19' W 002°25'815.4
2019-Aug-15 16:31N 56°13' W 002°35'816.3
2019-Aug-15 16:00N 56°09' W 002°47'816.5
2019-Aug-15 15:30N 56°04' W 002°60'712.9
2019-Aug-15 14:57N 56°02' W 003°12'613.4
2019-Aug-15 14:30N 56°00' W 003°22'2 4.6
2019-Aug-15 14:00N 56°01' W 003°26'0 0.0
2019-Aug-15 13:30N 56°01' W 003°26'0 0.0
2019-Aug-15 13:00N 56°01' W 003°26'0 0.0
2019-Aug-15 12:30N 56°01' W 003°26'0 0.0
2019-Aug-15 11:57N 56°01' W 003°26'0 0.0
2019-Aug-15 11:27N 56°01' W 003°26'0 0.0
2019-Aug-15 10:57N 56°01' W 003°26'0 0.0
2019-Aug-15 10:30N 56°01' W 003°26'0 0.0
2019-Aug-15 09:57N 56°01' W 003°26'0 0.0
2019-Aug-15 09:30N 56°01' W 003°26'0 0.0
2019-Aug-15 09:00N 56°01' W 003°26'0 0.0
2019-Aug-15 08:30N 56°01' W 003°26'0 0.0
2019-Aug-15 07:51N 56°01' W 003°26'0 0.0
2019-Aug-15 07:21N 56°01' W 003°26'0 0.0
2019-Aug-15 07:00N 56°01' W 003°26'0 0.8
2019-Aug-15 06:30N 56°01' W 003°26'3 5.5
2019-Aug-15 05:59N 56°01' W 003°21'4 8.7
2019-Aug-15 05:30N 56°02' W 003°13'612.1
2019-Aug-15 05:00N 56°04' W 003°03'510.5
2019-Aug-15 04:30N 56°05' W 002°54'612.0
2019-Aug-15 04:00N 56°06' W 002°43'712.0
2019-Aug-15 03:26N 56°04' W 002°31'1012.0
2019-Aug-15 02:36N 56°01' W 002°14'111.9
2019-Aug-15 02:30N 56°00' W 002°12'4 8.9
2019-Aug-15 02:00N 55°57' W 002°07'4 8.3
2019-Aug-15 01:30N 55°54' W 002°02'4 8.3
2019-Aug-15 01:00N 55°52' W 001°56'4 8.4
2019-Aug-15 00:30N 55°50' W 001°50'4 8.7
2019-Aug-15 00:00N 55°47' W 001°43'5 9.1
2019-Aug-14 23:30N 55°44' W 001°37'5 9.6
2019-Aug-14 23:00N 55°41' W 001°31'5 9.2
2019-Aug-14 22:30N 55°37' W 001°27'612.3
2019-Aug-14 22:00N 55°31' W 001°25'612.0
2019-Aug-14 21:30N 55°25' W 001°24'612.3
2019-Aug-14 21:00N 55°19' W 001°23'612.3
2019-Aug-14 20:30N 55°13' W 001°23'612.3
2019-Aug-14 20:00N 55°06' W 001°22'510.2
2019-Aug-14 19:30N 55°01' W 001°23'3 5.0
2019-Aug-14 18:55N 54°60' W 001°27'0 0.0
2019-Aug-14 18:25N 54°60' W 001°27'0 0.0
2019-Aug-14 17:55N 54°60' W 001°27'0 0.0
2019-Aug-14 17:25N 54°60' W 001°27'0 0.0
2019-Aug-14 16:55N 54°60' W 001°27'0 0.0
2019-Aug-14 16:28N 54°60' W 001°27'0 0.0
2019-Aug-14 16:01N 54°60' W 001°27'0 0.0
2019-Aug-14 15:28N 54°60' W 001°27'0 0.0
2019-Aug-14 15:01N 54°60' W 001°27'0 0.0
2019-Aug-14 14:28N 54°60' W 001°27'0 0.0
2019-Aug-14 14:01N 54°60' W 001°27'0 0.0
2019-Aug-14 13:28N 54°60' W 001°27'0 0.0
2019-Aug-14 13:01N 54°60' W 001°27'0 0.0
2019-Aug-14 12:31N 54°60' W 001°27'0 0.0
2019-Aug-14 12:00N 54°60' W 001°27'0 0.0
2019-Aug-14 11:30N 54°60' W 001°27'0 0.0
2019-Aug-14 11:00N 54°60' W 001°27'0 0.1
2019-Aug-14 10:30N 54°60' W 001°27'0 0.2
2019-Aug-14 10:00N 54°60' W 001°27'4 8.6
2019-Aug-14 09:30N 55°01' W 001°20'510.1
2019-Aug-14 09:00N 54°59' W 001°12'611.0
2019-Aug-14 08:30N 54°55' W 001°06'2413.3
2019-Aug-14 06:42N 54°37' W 000°38'314.0
2019-Aug-14 06:27N 54°34' W 000°34'1015.8
2019-Aug-14 05:48N 54°27' W 000°22'515.5
2019-Aug-14 05:30N 54°23' W 000°17'715.2
2019-Aug-14 05:00N 54°17' W 000°09'815.0
2019-Aug-14 04:30N 54°12' E 000°01'714.4
2019-Aug-14 04:00N 54°07' E 000°10'714.4
2019-Aug-14 03:30N 54°02' E 000°18'714.5
2019-Aug-14 03:00N 53°56' E 000°26'714.6
2019-Aug-14 02:30N 53°51' E 000°35'714.6
2019-Aug-14 02:00N 53°45' E 000°42'815.1
2019-Aug-14 01:31N 53°39' E 000°49'815.7
2019-Aug-14 01:01N 53°33' E 000°57'816.3
2019-Aug-14 00:30N 53°26' E 001°05'816.9
2019-Aug-14 00:00N 53°19' E 001°13'816.8
2019-Aug-13 23:31N 53°12' E 001°22'917.0
2019-Aug-13 23:00N 53°07' E 001°32'816.7
2019-Aug-13 22:30N 53°01' E 001°42'816.1
2019-Aug-13 22:00N 52°57' E 001°54'815.4
2019-Aug-13 21:30N 52°54' E 002°06'714.8
2019-Aug-13 21:00N 52°47' E 002°11'714.5
2019-Aug-13 20:30N 52°41' E 002°18'4015.2
2019-Aug-13 17:53N 52°17' E 003°11'915.7
2019-Aug-13 17:19N 52°12' E 003°22'515.6
2019-Aug-13 17:00N 52°10' E 003°29'815.8
2019-Aug-13 16:30N 52°06' E 003°40'815.1
2019-Aug-13 16:00N 52°03' E 003°52'510.4
2019-Aug-13 15:30N 52°01' E 003°59'612.6
2019-Aug-13 15:00N 51°58' E 004°09'511.0
2019-Aug-13 14:31N 51°55' E 004°15'4 8.0
2019-Aug-13 14:00N 51°54' E 004°22'4 7.3
2019-Aug-13 13:31N 51°54' E 004°28'1 1.7
2019-Aug-13 12:58N 51°54' E 004°29'0 0.0
2019-Aug-13 12:28N 51°54' E 004°29'0 0.0
2019-Aug-13 11:58N 51°54' E 004°29'0 0.0
2019-Aug-13 11:28N 51°54' E 004°29'0 0.0
2019-Aug-13 10:58N 51°54' E 004°29'0 0.0
2019-Aug-13 10:28N 51°54' E 004°29'0 0.0
2019-Aug-13 09:58N 51°54' E 004°29'0 0.0
2019-Aug-13 09:28N 51°54' E 004°29'0 0.0
2019-Aug-13 08:58N 51°54' E 004°29'0 0.0
2019-Aug-13 08:28N 51°54' E 004°29'0 0.0
2019-Aug-13 07:58N 51°54' E 004°29'0 0.0
2019-Aug-13 07:28N 51°54' E 004°29'0 0.0
2019-Aug-13 06:58N 51°54' E 004°29'0 0.0
2019-Aug-13 06:28N 51°54' E 004°29'0 0.0
2019-Aug-13 06:00N 51°54' E 004°29'0 0.8
2019-Aug-13 05:30N 51°54' E 004°29'3 6.2
2019-Aug-13 05:00N 51°54' E 004°24'5 9.0
2019-Aug-13 04:30N 51°54' E 004°16'611.8
2019-Aug-13 04:00N 51°58' E 004°09'714.5
2019-Aug-13 03:31N 52°00' E 003°58'612.8
2019-Aug-13 03:00N 51°60' E 003°47'612.4
2019-Aug-13 02:29N 51°58' E 003°37'5513.1
2019-Aug-12 22:18N 51°53' E 002°09'415.0
2019-Aug-12 22:00N 51°51' E 002°03'714.6
2019-Aug-12 21:31N 51°48' E 001°52'714.3
2019-Aug-12 21:00N 51°51' E 001°41'5 9.4
2019-Aug-12 20:30N 51°50' E 001°34'713.5
2019-Aug-12 20:01N 51°43' E 001°29'714.4
2019-Aug-12 19:31N 51°38' E 001°22'714.0
2019-Aug-12 19:01N 51°34' E 001°13'714.3
2019-Aug-12 18:30N 51°30' E 001°03'714.2
2019-Aug-12 18:01N 51°29' E 000°51'815.1
2019-Aug-12 17:31N 51°30' E 000°39'612.7
2019-Aug-12 17:00N 51°30' E 000°29'5 9.6
2019-Aug-12 16:30N 51°27' E 000°23'1 1.5
2019-Aug-12 16:00N 51°27' E 000°22'0 0.0
2019-Aug-12 15:30N 51°27' E 000°22'0 0.0
2019-Aug-12 15:00N 51°27' E 000°22'0 0.0
2019-Aug-12 14:30N 51°27' E 000°22'0 0.0
2019-Aug-12 14:00N 51°27' E 000°22'0 0.0
2019-Aug-12 13:30N 51°27' E 000°22'0 0.0
2019-Aug-12 13:00N 51°27' E 000°22'0 0.0
2019-Aug-12 12:30N 51°27' E 000°22'0 0.0
2019-Aug-12 12:00N 51°27' E 000°22'0 0.0
2019-Aug-12 11:30N 51°27' E 000°22'0 0.0
2019-Aug-12 11:00N 51°27' E 000°22'0 0.0
2019-Aug-12 10:30N 51°27' E 000°22'0 0.0
2019-Aug-12 10:00N 51°27' E 000°22'0 0.0
2019-Aug-12 09:30N 51°27' E 000°22'0 0.0
2019-Aug-12 09:00N 51°27' E 000°22'0 0.0
2019-Aug-12 08:30N 51°27' E 000°22'0 0.1
2019-Aug-12 08:00N 51°27' E 000°22'1 1.6
2019-Aug-12 07:30N 51°27' E 000°23'3 7.0
2019-Aug-12 07:00N 51°29' E 000°28'611.6
2019-Aug-12 06:30N 51°30' E 000°37'714.5
2019-Aug-12 06:00N 51°29' E 000°48'714.0
2019-Aug-12 05:30N 51°29' E 000°59'714.4
2019-Aug-12 05:00N 51°33' E 001°09'714.1
2019-Aug-12 04:30N 51°37' E 001°19'815.8
2019-Aug-12 04:00N 51°43' E 001°28'816.0
2019-Aug-12 03:31N 51°49' E 001°36'5 9.2
2019-Aug-12 03:00N 51°52' E 001°41'612.4
2019-Aug-12 02:31N 51°57' E 001°45'714.8
2019-Aug-12 02:01N 52°04' E 001°49'714.9
2019-Aug-12 01:31N 52°12' E 001°53'714.6
2019-Aug-12 01:00N 52°18' E 001°57'713.9
2019-Aug-12 00:30N 52°25' E 002°02'612.9
2019-Aug-12 00:00N 52°31' E 002°06'612.8
2019-Aug-11 23:30N 52°37' E 002°09'612.9
2019-Aug-11 23:00N 52°43' E 002°13'612.7
2019-Aug-11 22:30N 52°49' E 002°09'713.1
2019-Aug-11 22:00N 52°55' E 002°04'713.7
2019-Aug-11 21:30N 52°58' E 001°54'714.1
2019-Aug-11 21:00N 53°01' E 001°43'  
Track history (hours):
 
Tides and Currents Weather Stations Pressure Air Temp Water Temp Dewpoint Dewpoint Depression Visibility Wind Speed Wind Dir Waves Ship Positions

Marco Polo

Operator: Orient Lines

Last reported at 2019-Aug-21 20:39 UTC. Time now 2019-Aug-22 08:57 UTC.
Position N 61°51' W 006°29'.

Type: Ship. MMSI: 308691456.

Date/timePositionNaut miles runAvg speedWind from/ knotsBaromVisibWave heightAir tempDewpointWater temp
2019-Aug-21 20:39N 61°51' W 006°29'213.4
2019-Aug-21 20:30N 61°52' W 006°32'713.5
2019-Aug-21 20:00N 61°57' W 006°41'2 0.2
2019-Aug-21 06:59N 61°59' W 006°43'4 7.9
2019-Aug-21 06:31N 61°56' W 006°39'713.3
2019-Aug-21 06:00N 61°51' W 006°28'207 6.8
2019-Aug-19 23:31N 59°03' W 002°24'012.5
2019-Aug-19 23:30N 59°03' W 002°24'612.6
2019-Aug-19 23:00N 58°60' W 002°35'713.9
2019-Aug-19 22:30N 59°00' W 002°48'510.7
2019-Aug-19 22:00N 59°00' W 002°59'0 0.2
2019-Aug-19 21:29N 59°00' W 002°59'0 0.0
2019-Aug-19 20:59N 59°00' W 002°59'0 0.0
2019-Aug-19 20:29N 59°00' W 002°59'0 0.0
2019-Aug-19 19:59N 59°00' W 002°59'0 0.0
2019-Aug-19 19:26N 59°00' W 002°59'0 0.0
2019-Aug-19 18:59N 59°00' W 002°59'0 0.0
2019-Aug-19 18:29N 59°00' W 002°59'0 0.0
2019-Aug-19 17:59N 59°00' W 002°59'0 0.0
2019-Aug-19 17:29N 59°00' W 002°59'0 0.0
2019-Aug-19 16:59N 59°00' W 002°59'0 0.0
2019-Aug-19 16:29N 59°00' W 002°59'0 0.0
2019-Aug-19 15:59N 59°00' W 002°59'0 0.0
2019-Aug-19 15:29N 59°00' W 002°59'0 0.0
2019-Aug-19 14:59N 59°00' W 002°59'0 0.0
2019-Aug-19 14:29N 59°00' W 002°59'0 0.0
2019-Aug-19 13:59N 59°00' W 002°59'0 0.0
2019-Aug-19 13:29N 59°00' W 002°59'0 0.0
2019-Aug-19 12:59N 59°00' W 002°59'0 0.0
2019-Aug-19 12:29N 59°00' W 002°59'0 0.0
2019-Aug-19 11:59N 59°00' W 002°59'0 0.0
2019-Aug-19 11:29N 59°00' W 002°59'0 0.0
2019-Aug-19 10:59N 59°00' W 002°59'0 0.0
2019-Aug-19 10:29N 59°00' W 002°59'0 0.0
2019-Aug-19 09:59N 59°00' W 002°59'0 0.0
2019-Aug-19 09:29N 59°00' W 002°59'0 0.0
2019-Aug-19 08:59N 59°00' W 002°59'0 0.0
2019-Aug-19 08:29N 59°00' W 002°59'0 0.0
2019-Aug-19 07:59N 59°00' W 002°59'0 0.0
2019-Aug-19 07:29N 59°00' W 002°59'0 0.0
2019-Aug-19 07:00N 59°00' W 002°59'0 0.7
2019-Aug-19 06:29N 59°00' W 002°58'3 6.6
2019-Aug-19 06:00N 59°01' W 002°52'510.0
2019-Aug-19 05:30N 59°00' W 002°42'611.5
2019-Aug-19 04:58N 58°56' W 002°33'613.8
2019-Aug-19 04:30N 58°50' W 002°29'1414.9
2019-Aug-19 03:35N 58°37' W 002°20'315.9
2019-Aug-19 03:25N 58°35' W 002°18'5414.8
2019-Aug-18 23:45N 57°44' W 001°43'414.6
2019-Aug-18 23:30N 57°41' W 001°40'714.9
2019-Aug-18 23:00N 57°33' W 001°39'815.5
2019-Aug-18 22:30N 57°26' W 001°40'815.8
2019-Aug-18 22:00N 57°18' W 001°44'816.4
2019-Aug-18 21:30N 57°10' W 001°49'816.6
2019-Aug-18 21:00N 57°03' W 001°55'3616.7
2019-Aug-18 18:50N 56°29' W 002°18'516.0
2019-Aug-18 18:30N 56°24' W 002°22'815.5
2019-Aug-18 18:00N 56°16' W 002°27'816.0
2019-Aug-18 17:30N 56°12' W 002°38'816.5
2019-Aug-18 17:00N 56°07' W 002°51'816.0
2019-Aug-18 16:30N 56°03' W 003°03'612.0
2019-Aug-18 16:00N 56°02' W 003°14'612.0
2019-Aug-18 15:29N 56°00' W 003°24'2 2.5
2019-Aug-18 14:50N 56°01' W 003°26'0 0.0
2019-Aug-18 12:50N 56°01' W 003°26'4 0.7
2019-Aug-18 07:00N 56°01' W 003°19'5 9.7
2019-Aug-18 06:30N 56°03' W 003°11'612.0
2019-Aug-18 06:01N 56°04' W 003°00'510.1
2019-Aug-18 05:31N 56°07' W 002°52'611.9
2019-Aug-18 05:00N 56°10' W 002°44'612.4
2019-Aug-18 04:31N 56°13' W 002°34'612.7
2019-Aug-18 04:00N 56°18' W 002°26'814.3
2019-Aug-18 03:28N 56°25' W 002°21'3416.5
2019-Aug-18 01:26N 56°56' W 001°59'716.5
2019-Aug-18 01:01N 57°03' W 001°54'816.5
2019-Aug-18 00:30N 57°11' W 001°49'816.5
2019-Aug-18 00:00N 57°18' W 001°43'816.4
2019-Aug-17 23:30N 57°26' W 001°38'816.1
2019-Aug-17 23:01N 57°34' W 001°37'8915.5
2019-Aug-17 17:15N 58°58' W 002°35'414.3
2019-Aug-17 17:00N 58°60' W 002°41'713.4
2019-Aug-17 16:30N 59°01' W 002°54'3 5.2
2019-Aug-17 16:00N 59°00' W 002°58'0 0.0
2019-Aug-17 15:29N 59°00' W 002°58'0 0.0
2019-Aug-17 14:59N 59°00' W 002°58'0 0.0
2019-Aug-17 14:29N 59°00' W 002°58'0 0.0
2019-Aug-17 13:59N 59°00' W 002°58'0 0.0
2019-Aug-17 13:29N 59°00' W 002°58'0 0.0
2019-Aug-17 12:59N 59°00' W 002°58'0 0.0
2019-Aug-17 12:29N 59°00' W 002°58'0 0.0
2019-Aug-17 11:59N 59°00' W 002°58'0 0.0
2019-Aug-17 11:29N 59°00' W 002°58'0 0.0
2019-Aug-17 10:59N 59°00' W 002°58'0 0.0
2019-Aug-17 10:29N 59°00' W 002°58'0 0.0
2019-Aug-17 09:59N 59°00' W 002°58'0 0.0
2019-Aug-17 09:29N 59°00' W 002°58'0 0.0
2019-Aug-17 08:59N 59°00' W 002°58'0 0.0
2019-Aug-17 08:29N 59°00' W 002°58'0 0.0
2019-Aug-17 07:59N 59°00' W 002°58'0 0.0
2019-Aug-17 07:29N 59°00' W 002°58'0 0.0
2019-Aug-17 07:00N 59°00' W 002°58'0 0.8
2019-Aug-17 06:30N 59°00' W 002°58'3 6.5
2019-Aug-17 06:00N 59°01' W 002°51'510.7
2019-Aug-17 05:30N 59°00' W 002°41'510.6
2019-Aug-17 05:00N 59°01' W 002°31'89 2.9
2019-Aug-15 22:03N 57°38' W 001°29'115.8
2019-Aug-15 22:01N 57°37' W 001°30'816.0
2019-Aug-15 21:31N 57°30' W 001°36'816.3
2019-Aug-15 21:00N 57°22' W 001°42'816.7
2019-Aug-15 20:30N 57°15' W 001°48'816.9
2019-Aug-15 20:01N 57°07' W 001°53'917.3
2019-Aug-15 19:31N 56°58' W 001°58'3317.3
2019-Aug-15 17:36N 56°28' W 002°19'216.5
2019-Aug-15 17:30N 56°26' W 002°20'816.3
2019-Aug-15 17:00N 56°19' W 002°25'815.4
2019-Aug-15 16:31N 56°13' W 002°35'816.3
2019-Aug-15 16:00N 56°09' W 002°47'816.5
2019-Aug-15 15:30N 56°04' W 002°60'712.9
2019-Aug-15 14:57N 56°02' W 003°12'613.4
2019-Aug-15 14:30N 56°00' W 003°22'2 4.6
2019-Aug-15 14:00N 56°01' W 003°26'0 0.0
2019-Aug-15 13:30N 56°01' W 003°26'0 0.0
2019-Aug-15 13:00N 56°01' W 003°26'0 0.0
2019-Aug-15 12:30N 56°01' W 003°26'0 0.0
2019-Aug-15 11:57N 56°01' W 003°26'0 0.0
2019-Aug-15 11:27N 56°01' W 003°26'0 0.0
2019-Aug-15 10:57N 56°01' W 003°26'0 0.0
2019-Aug-15 10:30N 56°01' W 003°26'0 0.0
2019-Aug-15 09:57N 56°01' W 003°26'0 0.0
2019-Aug-15 09:30N 56°01' W 003°26'0 0.0
2019-Aug-15 09:00N 56°01' W 003°26'0 0.0
2019-Aug-15 08:30N 56°01' W 003°26'0 0.0
2019-Aug-15 07:51N 56°01' W 003°26'0 0.0
2019-Aug-15 07:21N 56°01' W 003°26'0 0.0
2019-Aug-15 07:00N 56°01' W 003°26'0 0.8
2019-Aug-15 06:30N 56°01' W 003°26'3 5.5
2019-Aug-15 05:59N 56°01' W 003°21'4 8.7
2019-Aug-15 05:30N 56°02' W 003°13'612.1
2019-Aug-15 05:00N 56°04' W 003°03'510.5
2019-Aug-15 04:30N 56°05' W 002°54'612.0
2019-Aug-15 04:00N 56°06' W 002°43'712.0
2019-Aug-15 03:26N 56°04' W 002°31'1012.0
2019-Aug-15 02:36N 56°01' W 002°14'111.9
2019-Aug-15 02:30N 56°00' W 002°12'4 8.9
2019-Aug-15 02:00N 55°57' W 002°07'4 8.3
2019-Aug-15 01:30N 55°54' W 002°02'4 8.3
2019-Aug-15 01:00N 55°52' W 001°56'4 8.4
2019-Aug-15 00:30N 55°50' W 001°50'4 8.7
2019-Aug-15 00:00N 55°47' W 001°43'5 9.1
2019-Aug-14 23:30N 55°44' W 001°37'5 9.6
2019-Aug-14 23:00N 55°41' W 001°31'5 9.2
2019-Aug-14 22:30N 55°37' W 001°27'612.3
2019-Aug-14 22:00N 55°31' W 001°25'612.0
2019-Aug-14 21:30N 55°25' W 001°24'612.3
2019-Aug-14 21:00N 55°19' W 001°23'612.3
2019-Aug-14 20:30N 55°13' W 001°23'612.3
2019-Aug-14 20:00N 55°06' W 001°22'510.2
2019-Aug-14 19:30N 55°01' W 001°23'3 5.0
2019-Aug-14 18:55N 54°60' W 001°27'0 0.0
2019-Aug-14 18:25N 54°60' W 001°27'0 0.0
2019-Aug-14 17:55N 54°60' W 001°27'0 0.0
2019-Aug-14 17:25N 54°60' W 001°27'0 0.0
2019-Aug-14 16:55N 54°60' W 001°27'0 0.0
2019-Aug-14 16:28N 54°60' W 001°27'0 0.0
2019-Aug-14 16:01N 54°60' W 001°27'0 0.0
2019-Aug-14 15:28N 54°60' W 001°27'0 0.0
2019-Aug-14 15:01N 54°60' W 001°27'0 0.0
2019-Aug-14 14:28N 54°60' W 001°27'0 0.0
2019-Aug-14 14:01N 54°60' W 001°27'0 0.0
2019-Aug-14 13:28N 54°60' W 001°27'0 0.0
2019-Aug-14 13:01N 54°60' W 001°27'0 0.0
2019-Aug-14 12:31N 54°60' W 001°27'0 0.0
2019-Aug-14 12:00N 54°60' W 001°27'0 0.0
2019-Aug-14 11:30N 54°60' W 001°27'0 0.0
2019-Aug-14 11:00N 54°60' W 001°27'0 0.1
2019-Aug-14 10:30N 54°60' W 001°27'0 0.2
2019-Aug-14 10:00N 54°60' W 001°27'4 8.6
2019-Aug-14 09:30N 55°01' W 001°20'510.1
2019-Aug-14 09:00N 54°59' W 001°12'611.0
2019-Aug-14 08:30N 54°55' W 001°06'2413.3
2019-Aug-14 06:42N 54°37' W 000°38'314.0
2019-Aug-14 06:27N 54°34' W 000°34'1015.8
2019-Aug-14 05:48N 54°27' W 000°22'515.5
2019-Aug-14 05:30N 54°23' W 000°17'715.2
2019-Aug-14 05:00N 54°17' W 000°09'815.0
2019-Aug-14 04:30N 54°12' E 000°01'714.4
2019-Aug-14 04:00N 54°07' E 000°10'714.4
2019-Aug-14 03:30N 54°02' E 000°18'714.5
2019-Aug-14 03:00N 53°56' E 000°26'714.6
2019-Aug-14 02:30N 53°51' E 000°35'714.6
2019-Aug-14 02:00N 53°45' E 000°42'815.1
2019-Aug-14 01:31N 53°39' E 000°49'815.7
2019-Aug-14 01:01N 53°33' E 000°57'816.3
2019-Aug-14 00:30N 53°26' E 001°05'816.9
2019-Aug-14 00:00N 53°19' E 001°13'816.8
2019-Aug-13 23:31N 53°12' E 001°22'917.0
2019-Aug-13 23:00N 53°07' E 001°32'816.7
2019-Aug-13 22:30N 53°01' E 001°42'816.1
2019-Aug-13 22:00N 52°57' E 001°54'815.4
2019-Aug-13 21:30N 52°54' E 002°06'714.8
2019-Aug-13 21:00N 52°47' E 002°11'714.5
2019-Aug-13 20:30N 52°41' E 002°18'4015.2
2019-Aug-13 17:53N 52°17' E 003°11'915.7
2019-Aug-13 17:19N 52°12' E 003°22'515.6
2019-Aug-13 17:00N 52°10' E 003°29'815.8
2019-Aug-13 16:30N 52°06' E 003°40'815.1
2019-Aug-13 16:00N 52°03' E 003°52'510.4
2019-Aug-13 15:30N 52°01' E 003°59'612.6
2019-Aug-13 15:00N 51°58' E 004°09'511.0
2019-Aug-13 14:31N 51°55' E 004°15'4 8.0
2019-Aug-13 14:00N 51°54' E 004°22'4 7.3
2019-Aug-13 13:31N 51°54' E 004°28'1 1.7
2019-Aug-13 12:58N 51°54' E 004°29'0 0.0
2019-Aug-13 12:28N 51°54' E 004°29'0 0.0
2019-Aug-13 11:58N 51°54' E 004°29'0 0.0
2019-Aug-13 11:28N 51°54' E 004°29'0 0.0
2019-Aug-13 10:58N 51°54' E 004°29'0 0.0
2019-Aug-13 10:28N 51°54' E 004°29'0 0.0
2019-Aug-13 09:58N 51°54' E 004°29'0 0.0
2019-Aug-13 09:28N 51°54' E 004°29'0 0.0
2019-Aug-13 08:58N 51°54' E 004°29'0 0.0
2019-Aug-13 08:28N 51°54' E 004°29'0 0.0
2019-Aug-13 07:58N 51°54' E 004°29'0 0.0
2019-Aug-13 07:28N 51°54' E 004°29'0 0.0
2019-Aug-13 06:58N 51°54' E 004°29'0 0.0
2019-Aug-13 06:28N 51°54' E 004°29'0 0.0
2019-Aug-13 06:00N 51°54' E 004°29'0 0.8
2019-Aug-13 05:30N 51°54' E 004°29'3 6.2
2019-Aug-13 05:00N 51°54' E 004°24'5 9.0
2019-Aug-13 04:30N 51°54' E 004°16'611.8
2019-Aug-13 04:00N 51°58' E 004°09'714.5
2019-Aug-13 03:31N 52°00' E 003°58'612.8
2019-Aug-13 03:00N 51°60' E 003°47'612.4
2019-Aug-13 02:29N 51°58' E 003°37'5513.1
2019-Aug-12 22:18N 51°53' E 002°09'415.0
2019-Aug-12 22:00N 51°51' E 002°03'714.6
2019-Aug-12 21:31N 51°48' E 001°52'714.3
2019-Aug-12 21:00N 51°51' E 001°41'5 9.4
2019-Aug-12 20:30N 51°50' E 001°34'713.5
2019-Aug-12 20:01N 51°43' E 001°29'714.4
2019-Aug-12 19:31N 51°38' E 001°22'714.0
2019-Aug-12 19:01N 51°34' E 001°13'714.3
2019-Aug-12 18:30N 51°30' E 001°03'714.2
2019-Aug-12 18:01N 51°29' E 000°51'815.1
2019-Aug-12 17:31N 51°30' E 000°39'612.7
2019-Aug-12 17:00N 51°30' E 000°29'5 9.6
2019-Aug-12 16:30N 51°27' E 000°23'1 1.5
2019-Aug-12 16:00N 51°27' E 000°22'0 0.0
2019-Aug-12 15:30N 51°27' E 000°22'0 0.0
2019-Aug-12 15:00N 51°27' E 000°22'0 0.0
2019-Aug-12 14:30N 51°27' E 000°22'0 0.0
2019-Aug-12 14:00N 51°27' E 000°22'0 0.0
2019-Aug-12 13:30N 51°27' E 000°22'0 0.0
2019-Aug-12 13:00N 51°27' E 000°22'0 0.0
2019-Aug-12 12:30N 51°27' E 000°22'0 0.0
2019-Aug-12 12:00N 51°27' E 000°22'0 0.0
2019-Aug-12 11:30N 51°27' E 000°22'0 0.0
2019-Aug-12 11:00N 51°27' E 000°22'0 0.0
2019-Aug-12 10:30N 51°27' E 000°22'0 0.0
2019-Aug-12 10:00N 51°27' E 000°22'0 0.0
2019-Aug-12 09:30N 51°27' E 000°22'0 0.0
2019-Aug-12 09:00N 51°27' E 000°22'0 0.0
2019-Aug-12 08:30N 51°27' E 000°22'0 0.1
2019-Aug-12 08:00N 51°27' E 000°22'1 1.6
2019-Aug-12 07:30N 51°27' E 000°23'3 7.0
2019-Aug-12 07:00N 51°29' E 000°28'611.6
2019-Aug-12 06:30N 51°30' E 000°37'714.5
2019-Aug-12 06:00N 51°29' E 000°48'714.0
2019-Aug-12 05:30N 51°29' E 000°59'714.4
2019-Aug-12 05:00N 51°33' E 001°09'714.1
2019-Aug-12 04:30N 51°37' E 001°19'815.8
2019-Aug-12 04:00N 51°43' E 001°28'816.0
2019-Aug-12 03:31N 51°49' E 001°36'5 9.2
2019-Aug-12 03:00N 51°52' E 001°41'612.4
2019-Aug-12 02:31N 51°57' E 001°45'714.8
2019-Aug-12 02:01N 52°04' E 001°49'714.9
2019-Aug-12 01:31N 52°12' E 001°53'714.6
2019-Aug-12 01:00N 52°18' E 001°57'713.9
2019-Aug-12 00:30N 52°25' E 002°02'612.9
2019-Aug-12 00:00N 52°31' E 002°06'612.8
2019-Aug-11 23:30N 52°37' E 002°09'612.9
2019-Aug-11 23:00N 52°43' E 002°13'612.7
2019-Aug-11 22:30N 52°49' E 002°09'713.1
2019-Aug-11 22:00N 52°55' E 002°04'713.7
2019-Aug-11 21:30N 52°58' E 001°54'714.1
2019-Aug-11 21:00N 53°01' E 001°43'  

Dump ship's entire track history